createdAt,value
2023-10-06T00:00:31.924Z,101671.97
2023-10-06T00:03:09.080Z,101675.06
2023-10-06T00:05:42.183Z,101664.69
2023-10-06T00:08:14.740Z,101670.16
2023-10-06T00:10:41.848Z,101653.84
2023-10-06T00:13:09.644Z,101665.94
2023-10-06T00:15:36.761Z,101672.25
2023-10-06T00:18:04.045Z,101674.09
2023-10-06T00:20:31.158Z,101678.88
2023-10-06T00:23:00.953Z,101673.59
2023-10-06T00:25:28.300Z,101669.16
2023-10-06T00:27:55.350Z,101656.94
2023-10-06T00:30:22.288Z,101658.97
2023-10-06T00:32:49.336Z,101661.25
2023-10-06T00:35:16.380Z,101657.63
2023-10-06T00:37:51.316Z,101659.03
2023-10-06T00:40:18.786Z,101647.94
2023-10-06T00:42:51.542Z,101646.78
2023-10-06T00:45:18.644Z,101651.91
2023-10-06T00:47:45.915Z,101645.59
2023-10-06T00:50:14.733Z,101649.50
2023-10-06T00:52:42.739Z,101647.31
2023-10-06T00:55:10.163Z,101657.22
2023-10-06T00:57:37.205Z,101668.13
2023-10-06T01:00:05.831Z,101649.25
2023-10-06T01:02:32.720Z,101653.81
2023-10-06T01:04:59.727Z,101654.28
2023-10-06T01:07:26.844Z,101654.28
2023-10-06T01:09:57.540Z,101647.16
2023-10-06T01:12:25.289Z,101646.78
2023-10-06T01:14:52.604Z,101643.03
2023-10-06T01:17:19.854Z,101641.28
2023-10-06T01:19:47.531Z,101646.22
2023-10-06T01:22:22.290Z,101636.66
2023-10-06T01:24:54.476Z,101638.00
2023-10-06T01:27:28.122Z,101632.41
2023-10-06T01:29:59.220Z,101621.88
2023-10-06T01:32:26.163Z,101649.22
2023-10-06T01:34:53.872Z,101640.72
2023-10-06T01:37:27.383Z,101653.78
2023-10-06T01:39:55.012Z,101644.22
2023-10-06T01:42:22.016Z,101651.38
2023-10-06T01:44:59.368Z,101654.13
2023-10-06T01:47:37.021Z,101656.13
2023-10-06T01:50:05.608Z,101659.13
2023-10-06T01:52:32.615Z,101646.88
2023-10-06T01:54:59.717Z,101666.41
2023-10-06T01:57:26.489Z,101643.81
2023-10-06T01:59:53.351Z,101661.81
2023-10-06T02:02:20.351Z,101659.13
2023-10-06T02:04:52.034Z,101665.31
2023-10-06T02:07:19.034Z,101667.75
2023-10-06T02:09:45.881Z,101667.47
2023-10-06T02:12:12.766Z,101671.28
2023-10-06T02:14:45.606Z,101662.19
2023-10-06T02:17:13.610Z,101667.72
2023-10-06T02:19:42.982Z,101671.00
2023-10-06T02:22:09.857Z,101658.91
2023-10-06T02:24:39.422Z,101677.31
2023-10-06T02:27:09.147Z,101679.34
2023-10-06T02:29:38.784Z,101688.72
2023-10-06T02:32:05.730Z,101685.63
2023-10-06T02:34:32.664Z,101684.28
2023-10-06T02:37:00.384Z,101677.47
2023-10-06T02:39:29.408Z,101687.50
2023-10-06T02:41:56.689Z,101683.09
2023-10-06T02:44:25.795Z,101673.75
2023-10-06T02:46:57.689Z,101675.94
2023-10-06T02:49:24.745Z,101679.88
2023-10-06T02:51:51.979Z,101679.31
2023-10-06T02:54:18.850Z,101682.34
2023-10-06T02:56:45.732Z,101681.00
2023-10-06T02:59:12.618Z,101678.44
2023-10-06T03:01:39.627Z,101681.34
2023-10-06T03:04:06.694Z,101679.63
2023-10-06T03:06:33.515Z,101675.03
2023-10-06T03:09:00.314Z,101670.47
2023-10-06T03:11:32.431Z,101655.50
2023-10-06T03:13:59.317Z,101667.91
2023-10-06T03:16:26.282Z,101676.91
2023-10-06T03:19:02.333Z,101678.25
2023-10-06T03:21:34.649Z,101676.56
2023-10-06T03:24:10.664Z,101670.25
2023-10-06T03:26:45.319Z,101653.25
2023-10-06T03:29:12.385Z,101678.25
2023-10-06T03:31:39.512Z,101650.72
2023-10-06T03:34:06.402Z,101679.28
2023-10-06T03:36:43.029Z,101670.25
2023-10-06T03:39:17.079Z,101664.81
2023-10-06T03:41:45.547Z,101673.50
2023-10-06T03:44:12.508Z,101672.50
2023-10-06T03:46:39.962Z,101674.53
2023-10-06T03:49:11.398Z,101667.72
2023-10-06T03:51:38.454Z,101679.28
2023-10-06T03:54:06.200Z,101674.84
2023-10-06T03:56:36.671Z,101675.38
2023-10-06T03:59:04.600Z,101686.06
2023-10-06T04:01:31.613Z,101689.78
2023-10-06T04:04:03.329Z,101689.28
2023-10-06T04:06:30.182Z,101677.91
2023-10-06T04:08:57.228Z,101685.03
2023-10-06T04:11:24.381Z,101695.91
2023-10-06T04:13:55.063Z,101695.06
2023-10-06T04:16:23.436Z,101681.97
2023-10-06T04:18:50.879Z,101683.31
2023-10-06T04:21:21.836Z,101677.50
2023-10-06T04:23:53.518Z,101698.09
2023-10-06T04:26:20.491Z,101679.38
2023-10-06T04:28:47.372Z,101701.34
2023-10-06T04:31:14.332Z,101699.66
2023-10-06T04:33:41.289Z,101705.25
2023-10-06T04:36:08.199Z,101692.50
2023-10-06T04:38:41.866Z,101703.78
2023-10-06T04:41:11.692Z,101693.94
2023-10-06T04:43:40.113Z,101708.59
2023-10-06T04:46:06.999Z,101700.13
2023-10-06T04:48:41.420Z,101706.91
2023-10-06T04:51:10.089Z,101685.16
2023-10-06T04:53:36.945Z,101693.28
2023-10-06T04:56:08.321Z,101691.56
2023-10-06T04:58:36.525Z,101688.38
2023-10-06T05:01:03.833Z,101702.97
2023-10-06T05:03:37.435Z,101705.00
2023-10-06T05:06:19.995Z,101709.78
2023-10-06T05:08:47.526Z,101714.03
2023-10-06T05:11:17.864Z,101725.28
2023-10-06T05:13:46.961Z,101720.16
2023-10-06T05:16:14.882Z,101724.25
2023-10-06T05:18:41.937Z,101716.09
2023-10-06T05:21:08.783Z,101734.44
2023-10-06T05:23:38.703Z,101727.97
2023-10-06T05:26:05.681Z,101737.16
2023-10-06T05:28:35.378Z,101726.44
2023-10-06T05:31:03.108Z,101738.34
2023-10-06T05:33:29.986Z,101743.59
2023-10-06T05:35:57.433Z,101740.56
2023-10-06T05:38:24.299Z,101750.59
2023-10-06T05:40:58.668Z,101748.38
2023-10-06T05:43:35.551Z,101752.63
2023-10-06T05:46:06.147Z,101760.94
2023-10-06T05:48:35.840Z,101759.91
2023-10-06T05:51:05.157Z,101772.78
2023-10-06T05:53:34.007Z,101771.09
2023-10-06T05:56:04.821Z,101764.25
2023-10-06T05:58:31.602Z,101784.00
2023-10-06T06:00:58.480Z,101787.41
2023-10-06T06:03:25.583Z,101795.63
2023-10-06T06:05:53.554Z,101792.56
2023-10-06T06:08:28.796Z,101800.13
2023-10-06T06:10:55.649Z,101795.38
2023-10-06T06:13:23.392Z,101802.66
2023-10-06T06:15:51.966Z,101806.94
2023-10-06T06:18:18.990Z,101810.00
2023-10-06T06:20:45.991Z,101814.78
2023-10-06T06:23:13.715Z,101823.47
2023-10-06T06:25:41.758Z,101828.06
2023-10-06T06:28:11.227Z,101828.41
2023-10-06T06:30:38.228Z,101824.47
2023-10-06T06:33:08.724Z,101817.81
2023-10-06T06:35:36.626Z,101828.66
2023-10-06T06:38:13.926Z,101823.56
2023-10-06T06:40:41.591Z,101830.66
2023-10-06T06:43:24.193Z,101812.03
2023-10-06T06:45:51.805Z,101837.91
2023-10-06T06:48:18.804Z,101847.31
2023-10-06T06:50:51.705Z,101834.50
2023-10-06T06:53:23.435Z,101839.06
2023-10-06T06:55:53.355Z,101845.19
2023-10-06T06:58:22.745Z,101849.72
2023-10-06T07:00:51.908Z,101842.19
2023-10-06T07:03:18.761Z,101838.41
2023-10-06T07:05:49.168Z,101853.53
2023-10-06T07:08:23.833Z,101862.88
2023-10-06T07:10:51.076Z,101870.31
2023-10-06T07:13:17.889Z,101848.53
2023-10-06T07:15:54.816Z,101873.69
2023-10-06T07:18:39.255Z,101866.78
2023-10-06T07:21:11.702Z,101878.50
2023-10-06T07:23:38.627Z,101883.81
2023-10-06T07:26:12.893Z,101888.47
2023-10-06T07:28:40.298Z,101887.38
2023-10-06T07:31:14.609Z,101883.56
2023-10-06T07:33:58.088Z,101886.13
2023-10-06T07:36:36.634Z,101898.75
2023-10-06T07:39:06.186Z,101895.09
2023-10-06T07:41:33.594Z,101898.09
2023-10-06T07:44:03.345Z,101892.56
2023-10-06T07:46:35.992Z,101903.03
2023-10-06T07:49:02.854Z,101899.94
2023-10-06T07:51:29.691Z,101902.38
2023-10-06T07:54:00.172Z,101907.31
2023-10-06T07:56:32.477Z,101904.69
2023-10-06T07:59:01.258Z,101892.44
2023-10-06T08:01:37.882Z,101895.16
2023-10-06T08:04:05.898Z,101898.69
2023-10-06T08:06:34.671Z,101905.84
2023-10-06T08:09:03.555Z,101900.38
2023-10-06T08:11:34.012Z,101901.69
2023-10-06T08:14:01.258Z,101905.09
2023-10-06T08:16:28.180Z,101903.16
2023-10-06T08:18:55.071Z,101909.25
2023-10-06T08:21:23.811Z,101891.63
2023-10-06T08:23:54.342Z,101919.88
2023-10-06T08:26:23.891Z,101919.72
2023-10-06T08:28:50.764Z,101923.38
2023-10-06T08:31:18.242Z,101921.94
2023-10-06T08:33:47.076Z,101909.22
2023-10-06T08:36:14.046Z,101923.69
2023-10-06T08:38:40.928Z,101919.88
2023-10-06T08:41:15.186Z,101921.78
2023-10-06T08:43:54.738Z,101919.19
2023-10-06T08:46:26.513Z,101926.91
2023-10-06T08:48:55.020Z,101922.41
2023-10-06T08:51:23.787Z,101925.44
2023-10-06T08:53:59.887Z,101923.28
2023-10-06T08:56:26.890Z,101925.88
2023-10-06T08:58:54.656Z,101922.63
2023-10-06T09:01:30.636Z,101924.75
2023-10-06T09:04:11.196Z,101915.25
2023-10-06T09:06:58.379Z,101916.56
2023-10-06T09:09:28.216Z,101918.47
2023-10-06T09:11:59.749Z,101917.28
2023-10-06T09:14:28.632Z,101911.50
2023-10-06T09:16:55.611Z,101922.03
2023-10-06T09:19:22.498Z,101914.72
2023-10-06T09:22:07.131Z,101914.75
2023-10-06T09:24:40.857Z,101909.06
2023-10-06T09:27:27.230Z,101911.34
2023-10-06T09:30:04.284Z,101915.31
2023-10-06T09:32:31.694Z,101897.31
2023-10-06T09:34:58.675Z,101908.94
2023-10-06T09:37:28.131Z,101913.97
2023-10-06T09:40:02.668Z,101911.25
2023-10-06T09:42:30.539Z,101913.94
2023-10-06T09:45:13.082Z,101908.41
2023-10-06T09:47:49.930Z,101905.34
2023-10-06T09:50:19.496Z,101905.88
2023-10-06T09:52:50.852Z,101901.19
2023-10-06T09:55:26.234Z,101899.22
2023-10-06T09:57:55.266Z,101903.34
2023-10-06T10:00:22.114Z,101900.31
2023-10-06T10:02:50.739Z,101902.38
2023-10-06T10:05:22.638Z,101896.84
2023-10-06T10:07:50.211Z,101891.81
2023-10-06T10:10:20.786Z,101906.13
2023-10-06T10:13:05.822Z,101898.28
2023-10-06T10:16:13.729Z,101889.75
2023-10-06T10:18:46.440Z,101886.59
2023-10-06T10:21:15.618Z,101883.84
2023-10-06T10:23:44.702Z,101883.69
2023-10-06T10:26:39.464Z,101883.97
2023-10-06T10:29:15.420Z,101887.44
2023-10-06T10:32:00.757Z,101886.91
2023-10-06T10:34:37.146Z,101882.56
2023-10-06T10:37:03.871Z,101882.63
2023-10-06T10:39:42.162Z,101875.41
2023-10-06T10:42:14.319Z,101872.91
2023-10-06T10:44:44.755Z,101865.44
2023-10-06T10:47:21.019Z,101864.34
2023-10-06T10:49:50.531Z,101854.34
2023-10-06T10:52:17.630Z,101862.81
2023-10-06T10:54:44.558Z,101852.09
2023-10-06T10:57:21.542Z,101837.47
2023-10-06T11:00:06.156Z,101841.66
2023-10-06T11:02:36.852Z,101841.16
2023-10-06T11:05:05.642Z,101835.69
2023-10-06T11:07:34.164Z,101829.25
2023-10-06T11:10:02.507Z,101835.13
2023-10-06T11:12:35.116Z,101833.63
2023-10-06T11:15:04.526Z,101828.56
2023-10-06T11:17:35.454Z,101813.22
2023-10-06T11:20:09.374Z,101821.66
2023-10-06T11:22:36.251Z,101826.38
2023-10-06T11:25:12.314Z,101814.81
2023-10-06T11:27:51.647Z,101809.41
2023-10-06T11:30:22.983Z,101805.16
2023-10-06T11:32:49.928Z,101795.72
2023-10-06T11:35:18.197Z,101805.75
2023-10-06T11:37:47.606Z,101797.16
2023-10-06T11:40:19.445Z,101785.16
2023-10-06T11:42:46.228Z,101788.00
2023-10-06T11:45:29.075Z,101782.88
2023-10-06T11:47:56.296Z,101776.59
2023-10-06T11:50:28.505Z,101783.44
2023-10-06T11:52:55.481Z,101781.50
2023-10-06T11:55:33.160Z,101771.69
2023-10-06T11:58:04.344Z,101769.03
2023-10-06T12:00:39.867Z,101764.06
2023-10-06T12:03:21.352Z,101764.22
2023-10-06T12:05:57.194Z,101767.28
2023-10-06T12:08:27.984Z,101761.47
2023-10-06T12:10:55.556Z,101748.50
2023-10-06T12:13:22.857Z,101759.56
2023-10-06T12:15:59.719Z,101759.56
2023-10-06T12:18:42.856Z,101766.53
2023-10-06T12:21:12.363Z,101762.38
2023-10-06T12:23:39.156Z,101760.91
2023-10-06T12:26:06.020Z,101759.75
2023-10-06T12:28:33.524Z,101757.09
2023-10-06T12:31:04.981Z,101755.53
2023-10-06T12:33:37.453Z,101751.66
2023-10-06T12:36:14.143Z,101746.97
2023-10-06T12:38:50.716Z,101758.84
2023-10-06T12:41:18.787Z,101744.88
2023-10-06T12:43:47.945Z,101750.66
2023-10-06T12:46:20.862Z,101740.56
2023-10-06T12:48:49.297Z,101747.63
2023-10-06T12:51:16.515Z,101733.41
2023-10-06T12:53:43.433Z,101738.47
2023-10-06T12:56:10.565Z,101734.44
2023-10-06T12:58:37.853Z,101735.50
2023-10-06T13:01:04.709Z,101732.25
2023-10-06T13:03:31.639Z,101727.25
2023-10-06T13:06:04.285Z,101719.56
2023-10-06T13:08:32.828Z,101724.63
2023-10-06T13:10:59.708Z,101720.41
2023-10-06T13:13:41.273Z,101712.81
2023-10-06T13:16:14.485Z,101718.47
2023-10-06T13:18:47.379Z,101707.03
2023-10-06T13:21:15.161Z,101714.59
2023-10-06T13:23:42.002Z,101717.28
2023-10-06T13:26:27.126Z,101695.78
2023-10-06T13:29:01.239Z,101703.41
2023-10-06T13:31:30.139Z,101709.69
2023-10-06T13:33:57.574Z,101709.16
2023-10-06T13:36:24.519Z,101712.47
2023-10-06T13:38:56.504Z,101709.75
2023-10-06T13:41:23.671Z,101704.34
2023-10-06T13:43:50.524Z,101707.38
2023-10-06T13:46:23.309Z,101707.63
2023-10-06T13:48:50.945Z,101692.97
2023-10-06T13:51:25.676Z,101700.97
2023-10-06T13:53:52.632Z,101702.81
2023-10-06T13:56:22.475Z,101707.28
2023-10-06T13:58:54.325Z,101704.91
2023-10-06T14:01:21.217Z,101700.47
2023-10-06T14:03:48.151Z,101703.13
2023-10-06T14:06:15.103Z,101695.47
2023-10-06T14:08:41.874Z,101699.91
2023-10-06T14:11:08.788Z,101702.16
2023-10-06T14:13:35.662Z,101700.78
2023-10-06T14:16:02.966Z,101694.59
2023-10-06T14:18:29.822Z,101707.94
2023-10-06T14:20:57.285Z,101698.72
2023-10-06T14:23:25.701Z,101700.75
2023-10-06T14:25:53.522Z,101690.66
2023-10-06T14:28:25.077Z,101686.78
2023-10-06T14:30:53.135Z,101686.34
2023-10-06T14:33:23.254Z,101680.56
2023-10-06T14:35:59.475Z,101689.81
2023-10-06T14:38:29.392Z,101693.19
2023-10-06T14:41:01.112Z,101688.56
2023-10-06T14:43:29.900Z,101690.34
2023-10-06T14:45:56.943Z,101683.63
2023-10-06T14:48:23.955Z,101684.22
2023-10-06T14:51:03.638Z,101696.47
2023-10-06T14:53:31.624Z,101694.19
2023-10-06T14:55:58.585Z,101683.88
2023-10-06T14:58:37.064Z,101691.41
2023-10-06T15:01:09.760Z,101695.72
2023-10-06T15:03:47.442Z,101686.25
2023-10-06T15:06:25.716Z,101681.78
2023-10-06T15:08:59.199Z,101684.97
2023-10-06T15:11:27.105Z,101681.47
2023-10-06T15:13:59.377Z,101683.31
2023-10-06T15:16:26.593Z,101688.13
2023-10-06T15:18:53.522Z,101676.88
2023-10-06T15:21:22.062Z,101684.59
2023-10-06T15:23:51.349Z,101676.50
2023-10-06T15:26:20.854Z,101674.38
2023-10-06T15:28:57.133Z,101674.91
2023-10-06T15:31:34.035Z,101677.06
2023-10-06T15:34:12.631Z,101683.13
2023-10-06T15:36:50.178Z,101664.38
2023-10-06T15:39:18.031Z,101675.78
2023-10-06T15:41:49.342Z,101672.97
2023-10-06T15:44:19.898Z,101676.78
2023-10-06T15:46:53.721Z,101679.75
2023-10-06T15:49:21.630Z,101675.03
2023-10-06T15:51:48.969Z,101679.28
2023-10-06T15:54:16.043Z,101675.13
2023-10-06T15:56:54.211Z,101673.66
2023-10-06T15:59:21.942Z,101680.94
2023-10-06T16:01:55.192Z,101683.72
2023-10-06T16:04:22.072Z,101677.97
2023-10-06T16:06:48.932Z,101681.06
2023-10-06T16:09:15.714Z,101688.63
2023-10-06T16:11:42.733Z,101684.97
2023-10-06T16:14:09.665Z,101688.09
2023-10-06T16:16:43.058Z,101685.09
2023-10-06T16:19:10.670Z,101683.50
2023-10-06T16:21:47.777Z,101687.84
2023-10-06T16:24:15.978Z,101701.47
2023-10-06T16:26:43.161Z,101693.94
2023-10-06T16:29:13.935Z,101695.19
2023-10-06T16:31:41.297Z,101689.28
2023-10-06T16:34:15.025Z,101703.28
2023-10-06T16:36:48.883Z,101702.66
2023-10-06T16:39:16.085Z,101699.06
2023-10-06T16:41:43.281Z,101702.84
2023-10-06T16:44:10.141Z,101696.50
2023-10-06T16:46:36.991Z,101698.81
2023-10-06T16:49:07.864Z,101702.34
2023-10-06T16:51:34.817Z,101698.97
2023-10-06T16:54:01.610Z,101709.94
2023-10-06T16:56:29.625Z,101713.88
2023-10-06T16:58:56.572Z,101709.63
2023-10-06T17:01:23.447Z,101713.41
2023-10-06T17:03:52.539Z,101710.19
2023-10-06T17:06:32.154Z,101699.97
2023-10-06T17:09:01.096Z,101708.63
2023-10-06T17:11:28.208Z,101706.06
2023-10-06T17:14:02.340Z,101706.19
2023-10-06T17:16:29.228Z,101707.66
2023-10-06T17:18:56.110Z,101710.75
2023-10-06T17:21:22.978Z,101707.97
2023-10-06T17:23:53.449Z,101713.59
2023-10-06T17:26:20.419Z,101724.31
2023-10-06T17:28:54.556Z,101721.28
2023-10-06T17:31:21.686Z,101722.97
2023-10-06T17:33:49.042Z,101724.78
2023-10-06T17:36:25.278Z,101730.22
2023-10-06T17:38:52.314Z,101726.19
2023-10-06T17:41:22.217Z,101730.91
2023-10-06T17:43:49.180Z,101725.00
2023-10-06T17:46:17.136Z,101722.63
2023-10-06T17:48:50.320Z,101710.50
2023-10-06T17:51:23.973Z,101723.22
2023-10-06T17:53:51.353Z,101722.38
2023-10-06T17:56:18.391Z,101723.16
2023-10-06T17:58:52.940Z,101720.53
2023-10-06T18:01:20.869Z,101721.31
2023-10-06T18:03:53.936Z,101724.59
2023-10-06T18:06:28.857Z,101729.22
2023-10-06T18:08:56.493Z,101725.34
2023-10-06T18:11:23.337Z,101730.06
2023-10-06T18:13:50.335Z,101728.09
2023-10-06T18:16:17.273Z,101739.59
2023-10-06T18:18:47.918Z,101732.16
2023-10-06T18:21:14.752Z,101733.59
2023-10-06T18:23:44.347Z,101735.00
2023-10-06T18:26:13.800Z,101736.91
2023-10-06T18:28:40.896Z,101737.50
2023-10-06T18:31:08.123Z,101732.75
2023-10-06T18:33:36.604Z,101739.38
2023-10-06T18:36:03.484Z,101740.41
2023-10-06T18:38:30.450Z,101738.25
2023-10-06T18:41:00.461Z,101742.97
2023-10-06T18:43:31.854Z,101742.66
2023-10-06T18:46:00.167Z,101750.88
2023-10-06T18:48:27.337Z,101749.53
2023-10-06T18:50:58.270Z,101754.53
2023-10-06T18:53:25.816Z,101759.50
2023-10-06T18:55:53.419Z,101754.78
2023-10-06T18:58:28.489Z,101767.13
2023-10-06T19:00:59.420Z,101760.13
2023-10-06T19:03:26.447Z,101757.97
2023-10-06T19:06:05.804Z,101747.00
2023-10-06T19:08:33.620Z,101760.09
2023-10-06T19:11:07.160Z,101765.94
2023-10-06T19:13:34.068Z,101759.81
2023-10-06T19:16:00.887Z,101752.00
2023-10-06T19:18:27.679Z,101758.19
2023-10-06T19:21:04.101Z,101756.19
2023-10-06T19:23:30.998Z,101763.00
2023-10-06T19:26:09.905Z,101769.19
2023-10-06T19:28:40.449Z,101756.19
2023-10-06T19:31:18.103Z,101753.16
2023-10-06T19:33:52.485Z,101751.34
2023-10-06T19:36:19.932Z,101763.78
2023-10-06T19:38:46.792Z,101758.84
2023-10-06T19:41:17.151Z,101763.47
2023-10-06T19:43:45.421Z,101771.38
2023-10-06T19:46:15.189Z,101769.13
2023-10-06T19:48:42.829Z,101759.81
2023-10-06T19:51:09.697Z,101757.13
2023-10-06T19:53:45.570Z,101737.84
2023-10-06T19:56:15.287Z,101759.91
2023-10-06T19:58:42.147Z,101764.69
2023-10-06T20:01:09.272Z,101764.03
2023-10-06T20:03:40.084Z,101769.84
2023-10-06T20:06:06.932Z,101757.22
2023-10-06T20:08:39.013Z,101760.34
2023-10-06T20:11:05.943Z,101769.84
2023-10-06T20:13:35.021Z,101764.75
2023-10-06T20:16:13.733Z,101770.25
2023-10-06T20:18:44.184Z,101770.06
2023-10-06T20:21:11.419Z,101770.06
2023-10-06T20:23:38.460Z,101775.03
2023-10-06T20:26:05.457Z,101770.63
2023-10-06T20:28:32.251Z,101754.81
2023-10-06T20:30:59.118Z,101768.91
2023-10-06T20:33:31.882Z,101775.41
2023-10-06T20:35:58.672Z,101773.69
2023-10-06T20:38:25.823Z,101774.72
2023-10-06T20:40:53.416Z,101776.78
2023-10-06T20:43:20.359Z,101773.38
2023-10-06T20:45:47.286Z,101776.63
2023-10-06T20:48:14.184Z,101776.31
2023-10-06T20:50:45.500Z,101779.72
2023-10-06T20:53:12.315Z,101775.13
2023-10-06T20:55:39.150Z,101775.28
2023-10-06T20:58:05.965Z,101783.84
2023-10-06T21:00:35.084Z,101777.88
2023-10-06T21:03:07.831Z,101793.56
2023-10-06T21:05:34.963Z,101785.06
2023-10-06T21:08:01.803Z,101793.56
2023-10-06T21:10:28.797Z,101791.72
2023-10-06T21:12:55.684Z,101777.59
2023-10-06T21:15:22.545Z,101791.41
2023-10-06T21:17:58.346Z,101786.81
2023-10-06T21:20:25.120Z,101801.78
2023-10-06T21:22:51.954Z,101803.84
2023-10-06T21:25:18.996Z,101803.16
2023-10-06T21:27:45.817Z,101806.22
2023-10-06T21:30:13.170Z,101807.59
2023-10-06T21:32:39.924Z,101808.97
2023-10-06T21:35:07.111Z,101808.66
2023-10-06T21:37:34.130Z,101811.03
2023-10-06T21:40:00.990Z,101807.81
2023-10-06T21:42:27.893Z,101811.56
2023-10-06T21:44:54.699Z,101815.13
2023-10-06T21:47:24.059Z,101806.28
2023-10-06T21:49:56.555Z,101805.28
2023-10-06T21:52:23.472Z,101805.06
2023-10-06T21:54:50.782Z,101798.47
2023-10-06T21:57:17.560Z,101804.06
2023-10-06T21:59:44.379Z,101805.94
2023-10-06T22:02:11.284Z,101794.19
2023-10-06T22:04:38.544Z,101807.63
2023-10-06T22:07:08.796Z,101780.09
2023-10-06T22:09:35.642Z,101802.19
2023-10-06T22:12:03.427Z,101796.91
2023-10-06T22:14:30.258Z,101807.63
2023-10-06T22:16:57.190Z,101790.09
2023-10-06T22:19:24.091Z,101804.22
2023-10-06T22:21:57.535Z,101792.34
2023-10-06T22:24:24.304Z,101800.81
2023-10-06T22:26:51.115Z,101799.16
2023-10-06T22:29:19.545Z,101794.03
2023-10-06T22:31:49.965Z,101788.94
2023-10-06T22:34:35.579Z,101784.19
2023-10-06T22:37:20.665Z,101775.66
2023-10-06T22:39:53.570Z,101797.28
2023-10-06T22:42:23.816Z,101793.88
2023-10-06T22:44:51.481Z,101782.47
2023-10-06T22:47:18.306Z,101785.19
2023-10-06T22:49:45.292Z,101793.34
2023-10-06T22:52:12.143Z,101771.03
2023-10-06T22:54:39.009Z,101787.41
2023-10-06T22:57:05.850Z,101788.59
2023-10-06T22:59:32.863Z,101790.63
2023-10-06T23:01:59.916Z,101791.66
2023-10-06T23:04:30.800Z,101775.63
2023-10-06T23:07:10.960Z,101786.53
2023-10-06T23:09:49.103Z,101774.59
2023-10-06T23:12:16.274Z,101788.09
2023-10-06T23:14:43.053Z,101792.97
2023-10-06T23:17:22.920Z,101791.63
2023-10-06T23:20:03.563Z,101789.78
2023-10-06T23:22:43.855Z,101786.16
2023-10-06T23:25:25.386Z,101788.91
2023-10-06T23:28:06.704Z,101776.31
2023-10-06T23:30:37.796Z,101783.97
2023-10-06T23:33:11.514Z,101773.25
2023-10-06T23:35:53.608Z,101785.84
2023-10-06T23:38:22.077Z,101794.34
2023-10-06T23:40:49.571Z,101780.72
2023-10-06T23:43:17.392Z,101793.66
2023-10-06T23:45:44.247Z,101784.50
2023-10-06T23:48:11.430Z,101788.91
2023-10-06T23:50:39.461Z,101792.81
2023-10-06T23:53:06.748Z,101772.41
2023-10-06T23:55:37.609Z,101786.19
2023-10-06T23:58:04.618Z,101785.34
